Terminal Aerodrome Forecast
Issued by NWS

Home | Current Version | Previous Version | Text Only | Print | Product List | Glossary On
Versions: 1 2 3 4 5 6 7 8 9 10 11 12 13 14 15 16 17 18 19 20 21 22 23 24 25 26 27 28 29
000
FTUS41 KGYX 301425 AAC
TAFHIE
TAF AMD
KHIE 301425Z 3014/3112 VRB03KT 2SM -SN BR BKN035
     FM301600 VRB03KT 1SM -SN BR OVC015
     FM310000 32008KT 3SM -SHSN BR OVC025=

USA.gov is the U.S. government's official web portal to all federal, state and local government web resources and services.